Time;durP1;ratioP1;P1;durP2;ratioP2;P2;SDS_P1;SDS_P2;PMS_P1;PMS_P2;Temp;Humidity;BMP_temperature;BMP_pressure;BME280_temperature;BME280_humidity;BME280_pressure;Samples;Min_cycle;Max_cycle;Signal;HPM_P1;HPM_P2
2022/05/28 00:02:02;;;;;;;12.47;1.73;;;;;;;16.41;44.81;101063.50;4910562;29;20287;-72
2022/05/28 00:04:33;;;;;;;7.87;1.57;;;;;;;16.36;44.83;101060.50;4912597;29;20613;-72
2022/05/28 00:07:04;;;;;;;7.13;1.73;;;;;;;16.33;44.98;101060.03;4909182;29;20208;-72
2022/05/28 00:09:35;;;;;;;8.27;1.90;;;;;;;16.26;44.76;101070.59;4911294;29;20264;-71
2022/05/28 00:12:06;;;;;;;8.77;2.17;;;;;;;16.24;45.04;101071.75;4911021;29;20545;-72
2022/05/28 00:14:45;;;;;;;10.43;2.17;;;;;;;16.24;45.29;101069.91;4908741;29;20218;-71
2022/05/28 00:17:13;;;;;;;8.33;1.50;;;;;;;16.28;45.48;101078.41;4911276;29;20325;-71
2022/05/28 00:19:41;;;;;;;10.23;2.07;;;;;;;16.17;45.13;101072.44;4908198;29;20682;-72
2022/05/28 00:22:09;;;;;;;7.80;1.60;;;;;;;16.01;45.81;101075.09;4911855;29;20572;-72
2022/05/28 00:24:41;;;;;;;7.20;1.57;;;;;;;15.89;46.11;101079.16;4909016;29;20643;-72
2022/05/28 00:27:09;;;;;;;5.37;1.50;;;;;;;15.76;46.49;101078.81;4908455;29;20220;-72
2022/05/28 00:29:37;;;;;;;9.67;2.43;;;;;;;15.65;47.05;101079.16;4891424;29;20280;-72
2022/05/28 00:32:06;;;;;;;6.30;2.10;;;;;;;15.54;47.24;101084.81;4890894;29;20324;-71
2022/05/28 00:34:34;;;;;;;9.87;2.27;;;;;;;15.54;47.31;101079.47;4889958;29;20320;-71
2022/05/28 00:37:02;;;;;;;9.50;1.93;;;;;;;15.63;47.28;101075.81;4884390;29;20381;-72
2022/05/28 00:39:29;;;;;;;10.40;1.93;;;;;;;15.59;47.23;101071.78;4893089;29;20232;-71
2022/05/28 00:41:59;;;;;;;11.40;2.37;;;;;;;15.57;47.33;101071.13;4889097;29;20217;-72
2022/05/28 00:44:27;;;;;;;10.50;2.07;;;;;;;15.61;47.61;101072.44;4888230;29;20214;-71
2022/05/28 00:46:59;;;;;;;11.07;2.37;;;;;;;15.61;47.75;101075.13;4888172;29;20217;-72
2022/05/28 00:49:30;;;;;;;13.67;2.80;;;;;;;15.66;47.60;101080.78;4890223;29;20213;-71
2022/05/28 00:52:00;;;;;;;7.80;1.83;;;;;;;15.58;47.60;101075.44;4891194;29;20730;-71
2022/05/28 00:54:33;;;;;;;8.00;2.10;;;;;;;15.52;48.17;101078.75;4896893;29;20584;-71
2022/05/28 00:57:03;;;;;;;10.83;2.03;;;;;;;15.40;48.27;101071.06;4886222;29;20205;-72
2022/05/28 00:59:31;;;;;;;8.87;2.10;;;;;;;15.31;48.69;101079.22;4888573;29;20289;-72
2022/05/28 01:02:03;;;;;;;9.30;2.20;;;;;;;15.24;48.86;101076.38;4885245;29;20217;-72
2022/05/28 01:04:38;;;;;;;11.10;1.70;;;;;;;15.18;48.71;101071.69;4887157;29;20261;-72
2022/05/28 01:07:16;;;;;;;9.53;2.10;;;;;;;15.15;48.61;101072.00;4888321;29;20217;-72
2022/05/28 01:09:50;;;;;;;10.60;1.90;;;;;;;15.14;48.73;101073.00;4889627;29;20599;-72
2022/05/28 01:12:26;;;;;;;10.60;1.77;;;;;;;15.09;48.80;101067.31;4892123;29;20204;-71
2022/05/28 01:15:00;;;;;;;9.27;2.13;;;;;;;15.00;48.78;101060.28;4886826;29;20746;-71
2022/05/28 01:17:33;;;;;;;9.57;2.37;;;;;;;14.96;48.80;101065.09;4886834;29;20277;-72
2022/05/28 01:20:07;;;;;;;9.30;2.00;;;;;;;15.08;48.81;101065.66;4886547;29;20300;-71
2022/05/28 01:23:04;;;;;;;11.03;2.17;;;;;;;15.11;48.52;101067.16;4881838;29;20858;-72
2022/05/28 01:25:44;;;;;;;9.53;2.30;;;;;;;15.13;48.24;101065.97;4884848;29;20886;-72
2022/05/28 01:28:18;;;;;;;10.03;1.83;;;;;;;15.14;48.12;101073.00;4890506;29;20210;-73
2022/05/28 01:30:48;;;;;;;6.57;1.80;;;;;;;15.23;47.61;101068.50;4915470;29;20217;-71
2022/05/28 01:33:17;;;;;;;9.37;1.67;;;;;;;15.20;47.58;101064.34;4908207;29;20241;-71
2022/05/28 01:35:47;;;;;;;8.67;1.83;;;;;;;15.09;48.05;101071.84;4906801;29;20209;-72
2022/05/28 01:38:17;;;;;;;7.27;2.33;;;;;;;15.04;47.81;101061.63;4908680;29;20209;-71
2022/05/28 01:40:46;;;;;;;8.77;1.70;;;;;;;15.00;47.86;101062.97;4905397;29;20220;-71
2022/05/28 01:43:25;;;;;;;6.63;1.40;;;;;;;14.96;48.02;101062.44;4910714;29;20213;-71
2022/05/28 01:45:56;;;;;;;6.33;1.40;;;;;;;14.97;47.98;101056.09;4905206;29;20271;-71
2022/05/28 01:48:26;;;;;;;6.93;2.47;;;;;;;14.98;47.78;101059.59;4910845;29;20644;-71
2022/05/28 01:50:56;;;;;;;9.83;1.60;;;;;;;15.03;47.73;101059.97;4910228;29;20209;-71
2022/05/28 01:56:12;;;;;;;6.97;1.50;;;;;;;14.82;48.17;101063.06;4908718;29;20235;-72
2022/05/28 01:58:42;;;;;;;6.67;1.70;;;;;;;14.81;48.18;101060.56;4908280;29;20216;-72
2022/05/28 02:01:11;;;;;;;7.33;1.50;;;;;;;14.71;48.50;101063.34;4908368;29;20221;-71
2022/05/28 02:03:43;;;;;;;8.73;1.60;;;;;;;14.69;48.49;101057.31;4910557;29;20259;-71
2022/05/28 02:06:11;;;;;;;8.07;1.20;;;;;;;14.57;48.64;101056.78;4911196;29;21826;-71
2022/05/28 02:08:43;;;;;;;9.13;1.90;;;;;;;14.57;48.83;101058.63;4911940;29;20235;-71
2022/05/28 02:11:18;;;;;;;8.10;1.70;;;;;;;14.64;48.86;101055.16;4910722;29;20524;-72
2022/05/28 02:14:08;;;;;;;9.83;2.13;;;;;;;14.48;48.95;101048.91;4906388;29;20212;-71
2022/05/28 02:16:46;;;;;;;9.17;1.57;;;;;;;14.24;49.83;101050.41;4907445;29;20292;-71
2022/05/28 02:19:24;;;;;;;7.57;1.47;;;;;;;14.17;49.88;101051.19;4906374;29;20344;-72
2022/05/28 02:22:02;;;;;;;11.57;2.07;;;;;;;13.91;50.33;101054.69;4912225;29;20243;-71
2022/05/28 02:24:36;;;;;;;7.73;1.40;;;;;;;13.90;50.27;101055.66;4914248;29;20218;-72
2022/05/28 02:27:09;;;;;;;8.93;1.60;;;;;;;13.92;50.48;101056.34;4913817;29;20302;-71
2022/05/28 02:29:39;;;;;;;11.93;1.63;;;;;;;13.80;50.47;101056.78;4904880;29;20438;-72
2022/05/28 02:32:14;;;;;;;6.37;1.30;;;;;;;13.83;50.87;101051.94;4907595;29;20303;-71
2022/05/28 02:34:45;;;;;;;11.67;1.60;;;;;;;13.93;50.38;101054.53;4911531;29;20212;-72
2022/05/28 02:37:14;;;;;;;11.20;2.10;;;;;;;13.85;50.37;101062.47;4906683;29;20323;-72
2022/05/28 02:39:42;;;;;;;7.07;1.60;;;;;;;13.86;50.73;101064.16;4906846;29;20339;-72
2022/05/28 02:42:10;;;;;;;6.67;1.57;;;;;;;13.82;50.51;101066.28;4906914;29;20217;-72
2022/05/28 02:44:39;;;;;;;9.97;1.87;;;;;;;13.81;50.81;101066.41;4911293;29;20251;-72
2022/05/28 02:47:09;;;;;;;6.93;1.53;;;;;;;13.82;50.87;101068.94;4910775;29;20663;-72
2022/05/28 02:49:37;;;;;;;6.43;1.50;;;;;;;13.72;51.02;101073.50;4908817;29;20255;-71
2022/05/28 02:52:07;;;;;;;6.27;1.57;;;;;;;13.80;50.51;101070.94;4908172;29;20223;-72
2022/05/28 02:54:36;;;;;;;6.47;1.40;;;;;;;13.85;50.54;101073.97;4905584;29;20221;-72
2022/05/28 02:57:05;;;;;;;9.30;1.53;;;;;;;13.89;50.32;101075.34;4907678;29;20237;-72
2022/05/28 02:59:33;;;;;;;11.57;1.80;;;;;;;13.93;50.42;101075.84;4910647;29;20212;-72
2022/05/28 03:02:02;;;;;;;11.03;1.77;;;;;;;13.95;50.37;101063.22;4905831;29;20819;-72
2022/05/28 03:04:30;;;;;;;6.17;1.83;;;;;;;13.93;50.32;101066.03;4909824;29;20219;-72
2022/05/28 03:06:58;;;;;;;4.77;1.97;;;;;;;13.93;50.52;101062.53;4912256;29;20219;-72
2022/05/28 03:09:26;;;;;;;6.70;1.50;;;;;;;13.87;50.52;101066.66;4910335;29;20726;-72
2022/05/28 03:11:54;;;;;;;7.27;1.70;;;;;;;13.96;50.40;101056.06;4914147;29;20304;-72
2022/05/28 03:14:21;;;;;;;10.87;2.07;;;;;;;13.94;50.64;101065.03;4910047;29;20326;-72
2022/05/28 03:16:49;;;;;;;9.30;1.60;;;;;;;13.99;50.85;101063.72;4910801;29;20251;-72
2022/05/28 03:19:19;;;;;;;10.67;1.90;;;;;;;13.76;50.93;101058.91;4912506;29;20713;-71
2022/05/28 03:21:46;;;;;;;8.07;1.93;;;;;;;13.81;51.22;101058.41;4910823;29;20710;-71
2022/05/28 03:24:15;;;;;;;7.53;1.43;;;;;;;13.81;51.28;101056.59;4908337;29;20327;-71
2022/05/28 03:26:43;;;;;;;7.00;1.67;;;;;;;13.69;51.07;101047.19;4913283;29;20292;-71
2022/05/28 03:29:11;;;;;;;11.73;2.23;;;;;;;13.86;50.48;101053.47;4912433;29;20350;-71
2022/05/28 03:31:39;;;;;;;7.67;1.60;;;;;;;13.59;51.44;101062.41;4911977;29;20632;-71
2022/05/28 03:34:06;;;;;;;5.50;1.30;;;;;;;13.51;51.45;101059.69;4908163;29;20307;-71
2022/05/28 03:36:35;;;;;;;9.00;2.20;;;;;;;13.46;52.10;101062.78;4912068;29;20216;-71
2022/05/28 03:39:03;;;;;;;7.43;1.67;;;;;;;13.51;51.79;101070.34;4908846;29;20215;-71
2022/05/28 03:41:32;;;;;;;11.27;1.77;;;;;;;13.53;51.65;101071.03;4912569;29;20240;-71
2022/05/28 03:44:00;;;;;;;7.40;1.93;;;;;;;13.58;51.74;101071.41;4909199;29;20658;-74
2022/05/28 03:46:30;;;;;;;5.20;1.40;;;;;;;13.62;51.57;101072.78;4913085;29;20349;-71
2022/05/28 03:49:01;;;;;;;7.17;1.47;;;;;;;13.65;51.30;101074.28;4911717;29;20223;-71
2022/05/28 03:51:30;;;;;;;14.07;1.93;;;;;;;13.72;51.05;101073.50;4911646;29;20207;-71
2022/05/28 03:53:59;;;;;;;11.10;1.73;;;;;;;13.74;51.20;101073.38;4908731;29;20247;-71
2022/05/28 03:56:37;;;;;;;7.57;1.57;;;;;;;13.57;51.48;101080.38;4909899;29;20237;-71
2022/05/28 03:59:10;;;;;;;9.73;2.43;;;;;;;13.56;51.62;101079.53;4911079;29;20215;-72
2022/05/28 04:01:40;;;;;;;7.03;1.30;;;;;;;13.51;51.53;101070.34;4912227;29;20226;-71
2022/05/28 04:04:08;;;;;;;6.70;1.90;;;;;;;13.49;51.90;101070.50;4908566;29;20212;-71
2022/05/28 04:06:37;;;;;;;11.20;1.60;;;;;;;13.56;51.76;101074.22;4911867;29;20342;-71
2022/05/28 04:09:07;;;;;;;7.33;1.33;;;;;;;13.65;51.46;101072.47;4907157;29;20215;-71
2022/05/28 04:11:42;;;;;;;7.43;1.50;;;;;;;13.67;51.33;101075.81;4909878;29;20220;-71
2022/05/28 04:14:14;;;;;;;8.80;1.80;;;;;;;13.61;51.57;101065.78;4908235;29;20340;-72
2022/05/28 04:16:43;;;;;;;6.23;1.57;;;;;;;13.63;51.91;101074.47;4910853;29;20247;-72
2022/05/28 04:19:11;;;;;;;9.83;1.40;;;;;;;13.62;51.82;101079.94;4913296;29;20279;-71
2022/05/28 04:21:41;;;;;;;8.87;1.70;;;;;;;13.71;51.51;101066.53;4910329;29;20241;-71
2022/05/28 04:24:10;;;;;;;7.77;1.30;;;;;;;13.73;51.53;101077.00;4907686;29;20212;-72
2022/05/28 04:26:40;;;;;;;8.63;1.70;;;;;;;13.64;51.86;101081.44;4910610;29;20225;-71
2022/05/28 04:29:08;;;;;;;9.63;1.97;;;;;;;13.59;52.22;101083.75;4908245;29;20246;-72
2022/05/28 04:31:44;;;;;;;8.23;1.77;;;;;;;13.53;52.16;101085.19;4908189;29;20248;-72
2022/05/28 04:34:12;;;;;;;11.77;2.03;;;;;;;13.55;51.98;101083.19;4910775;29;20231;-72
2022/05/28 04:36:43;;;;;;;10.43;2.37;;;;;;;13.50;52.43;101084.66;4910410;29;20222;-71
2022/05/28 04:39:13;;;;;;;10.40;2.17;;;;;;;13.50;52.62;101085.50;4908330;29;20245;-72
2022/05/28 04:41:41;;;;;;;8.53;2.27;;;;;;;13.59;52.17;101083.75;4911061;29;20677;-71
2022/05/28 04:44:08;;;;;;;11.60;1.80;;;;;;;13.64;52.38;101086.78;4909040;29;20726;-71
2022/05/28 04:46:36;;;;;;;7.50;1.80;;;;;;;13.73;52.07;101088.50;4913179;29;20605;-71
2022/05/28 04:49:07;;;;;;;11.37;1.87;;;;;;;13.72;52.13;101094.03;4906514;29;20656;-71
2022/05/28 04:51:35;;;;;;;7.07;1.50;;;;;;;13.69;52.38;101084.50;4909014;29;20266;-72
2022/05/28 04:54:03;;;;;;;9.83;1.53;;;;;;;13.76;52.18;101090.03;4910503;29;20249;-71
2022/05/28 04:56:38;;;;;;;11.53;1.70;;;;;;;13.91;51.71;101085.84;4907180;29;20220;-72
2022/05/28 04:59:06;;;;;;;6.93;1.97;;;;;;;13.89;52.05;101080.69;4910892;29;20660;-72
2022/05/28 05:01:36;;;;;;;5.87;1.63;;;;;;;13.85;52.11;101084.63;4911986;29;20231;-71
2022/05/28 05:04:05;;;;;;;8.27;1.60;;;;;;;13.97;51.76;101077.25;4907603;29;20209;-71
2022/05/28 05:06:33;;;;;;;6.13;1.40;;;;;;;13.96;51.94;101088.06;4909220;29;20269;-71
2022/05/28 05:09:01;;;;;;;11.37;1.90;;;;;;;14.05;52.00;101095.13;4908906;29;20215;-70
2022/05/28 05:11:29;;;;;;;6.07;1.60;;;;;;;14.01;52.30;101089.25;4908111;29;20670;-72
2022/05/28 05:13:59;;;;;;;5.93;1.73;;;;;;;14.02;52.58;101100.75;4911537;29;21252;-71
2022/05/28 05:16:27;;;;;;;15.53;2.50;;;;;;;13.98;53.21;101094.91;4913432;29;20212;-72
2022/05/28 05:18:55;;;;;;;7.23;1.93;;;;;;;14.00;53.46;101092.06;4910472;29;20692;-72
2022/05/28 05:21:22;;;;;;;5.93;1.50;;;;;;;14.09;53.21;101085.81;4909833;29;20282;-72
2022/05/28 05:23:50;;;;;;;6.50;1.50;;;;;;;14.13;53.54;101092.50;4910083;29;20303;-71
2022/05/28 05:26:21;;;;;;;10.23;1.90;;;;;;;14.18;53.59;101095.53;4911354;29;20266;-71
2022/05/28 05:28:50;;;;;;;8.70;1.87;;;;;;;14.21;53.40;101100.56;4913104;29;20246;-72
2022/05/28 05:31:19;;;;;;;7.27;1.50;;;;;;;14.16;53.72;101106.34;4910319;29;20240;-71
2022/05/28 05:33:47;;;;;;;14.57;1.60;;;;;;;14.25;53.36;101101.91;4906461;29;20222;-70
2022/05/28 05:36:15;;;;;;;10.03;2.10;;;;;;;14.34;53.05;101100.97;4912925;29;20598;-71
2022/05/28 05:38:43;;;;;;;8.20;1.80;;;;;;;14.37;52.78;101100.66;4910833;29;20216;-72
2022/05/28 05:41:11;;;;;;;7.80;1.93;;;;;;;14.46;52.25;101104.25;4907552;29;21745;-71
2022/05/28 05:43:39;;;;;;;10.33;2.00;;;;;;;14.49;52.05;101099.44;4913488;29;20255;-71
2022/05/28 05:46:08;;;;;;;10.60;1.63;;;;;;;14.60;51.65;101101.81;4907999;29;20236;-71
2022/05/28 05:48:38;;;;;;;14.03;2.67;;;;;;;14.71;51.75;101107.88;4909992;29;20217;-70
2022/05/28 05:51:12;;;;;;;7.73;1.90;;;;;;;14.66;51.93;101105.72;4906013;29;20215;-72
2022/05/28 05:53:40;;;;;;;6.73;1.80;;;;;;;14.67;51.18;101107.38;4908570;29;20239;-71
2022/05/28 05:56:08;;;;;;;7.00;1.63;;;;;;;14.66;51.67;101114.56;4905474;29;20575;-70
2022/05/28 05:58:36;;;;;;;7.53;1.67;;;;;;;14.72;51.53;101109.56;4910126;29;20212;-71
2022/05/28 06:01:05;;;;;;;7.50;1.90;;;;;;;14.74;51.56;101107.59;4905638;29;20212;-70
2022/05/28 06:03:33;;;;;;;10.37;2.10;;;;;;;14.83;51.17;101110.13;4910105;29;20742;-71
2022/05/28 06:06:04;;;;;;;7.47;2.10;;;;;;;14.90;50.74;101104.97;4907936;29;20243;-72
2022/05/28 06:08:32;;;;;;;12.33;1.60;;;;;;;14.91;50.83;101114.66;4908826;29;20296;-71
2022/05/28 06:11:00;;;;;;;9.67;2.17;;;;;;;15.02;50.41;101114.38;4911257;29;20217;-72
2022/05/28 06:13:41;;;;;;;;;;;;;;;;;;;;;
2022/05/28 06:16:10;;;;;;;5.07;1.47;;;;;;;15.10;49.90;101103.72;4907758;29;20671;-72
2022/05/28 06:18:41;;;;;;;12.00;2.17;;;;;;;15.16;49.67;101103.06;4908468;29;20773;-72
2022/05/28 06:21:11;;;;;;;12.50;1.97;;;;;;;15.20;49.55;101096.41;4911589;29;20699;-72
2022/05/28 06:23:41;;;;;;;9.53;1.70;;;;;;;15.22;49.24;101099.72;4909568;29;20239;-71
2022/05/28 06:26:09;;;;;;;10.47;1.53;;;;;;;15.21;49.65;101099.94;4906971;29;20546;-72
2022/05/28 06:28:38;;;;;;;11.30;1.70;;;;;;;15.23;49.45;101109.44;4912600;29;20826;-71
2022/05/28 06:31:07;;;;;;;10.93;1.60;;;;;;;15.28;49.36;101112.47;4909874;29;20205;-71
2022/05/28 06:33:37;;;;;;;7.20;1.87;;;;;;;15.31;49.27;101106.78;4908280;29;20647;-71
2022/05/28 06:36:07;;;;;;;6.40;1.60;;;;;;;15.40;49.01;101103.13;4907171;29;20255;-72
2022/05/28 06:38:36;;;;;;;9.93;2.43;;;;;;;15.40;48.96;101103.13;4909856;29;20389;-72
2022/05/28 06:41:04;;;;;;;7.10;1.43;;;;;;;15.44;48.49;101101.81;4914156;29;20213;-72
2022/05/28 06:43:32;;;;;;;7.03;1.83;;;;;;;15.50;48.84;101102.13;4912702;29;20362;-72
2022/05/28 06:46:02;;;;;;;5.60;1.63;;;;;;;15.58;48.68;101099.50;4913804;29;20208;-72
2022/05/28 06:48:30;;;;;;;7.10;1.40;;;;;;;15.65;48.18;101105.88;4911179;29;20212;-71
2022/05/28 06:51:04;;;;;;;8.87;2.00;;;;;;;15.69;48.10;101099.19;4914303;29;20216;-73
2022/05/28 06:53:34;;;;;;;9.77;2.07;;;;;;;15.74;48.02;101099.53;4909023;29;20209;-72
2022/05/28 06:56:06;;;;;;;10.30;2.00;;;;;;;15.79;48.34;101097.19;4915209;29;20243;-72
2022/05/28 06:58:35;;;;;;;8.63;1.80;;;;;;;15.89;47.75;101097.88;4914148;29;20272;-72
2022/05/28 07:01:06;;;;;;;7.73;1.47;;;;;;;15.99;47.74;101090.50;4921473;29;20236;-73
2022/05/28 07:03:35;;;;;;;6.87;1.40;;;;;;;16.11;47.71;101091.00;4911770;29;20745;-73
2022/05/28 07:06:04;;;;;;;9.30;2.00;;;;;;;16.21;47.47;101088.13;4911986;29;20527;-73
2022/05/28 07:08:31;;;;;;;6.47;1.83;;;;;;;16.34;46.99;101081.28;4915106;29;20591;-72
2022/05/28 07:11:01;;;;;;;11.17;1.53;;;;;;;16.35;47.46;101085.63;4914867;29;20221;-74
2022/05/28 07:13:32;;;;;;;8.63;1.60;;;;;;;16.45;47.29;101067.50;4914967;29;20297;-73
2022/05/28 07:16:00;;;;;;;7.10;1.57;;;;;;;16.38;47.21;101073.72;4916755;29;20221;-72
2022/05/28 07:18:28;;;;;;;9.70;1.80;;;;;;;16.42;47.18;101086.59;4914596;29;20731;-73
2022/05/28 07:20:56;;;;;;;6.60;1.70;;;;;;;16.52;47.63;101075.69;4912486;29;20217;-73
2022/05/28 07:23:25;;;;;;;9.00;1.63;;;;;;;16.62;47.67;101071.03;4914783;29;20229;-73
2022/05/28 07:26:00;;;;;;;7.80;1.80;;;;;;;16.72;47.07;101070.78;4913532;29;20219;-73
2022/05/28 07:28:30;;;;;;;7.10;1.87;;;;;;;16.79;46.53;101069.13;4913129;29;20315;-73
2022/05/28 07:31:02;;;;;;;8.73;1.87;;;;;;;16.89;45.87;101067.03;4913739;29;20273;-72
2022/05/28 07:33:31;;;;;;;8.83;2.03;;;;;;;16.96;46.02;101072.53;4910918;29;20659;-73
2022/05/28 07:36:01;;;;;;;8.97;2.20;;;;;;;17.04;45.86;101064.47;4913599;29;20583;-72
2022/05/28 07:38:30;;;;;;;8.17;2.10;;;;;;;17.06;46.26;101065.97;4913978;29;20216;-72
2022/05/28 07:41:05;;;;;;;11.60;2.27;;;;;;;17.12;46.01;101062.56;4914356;29;20275;-71
2022/05/28 07:43:33;;;;;;;7.33;1.83;;;;;;;17.19;45.88;101073.41;4910905;29;20239;-73
2022/05/28 07:46:03;;;;;;;10.47;1.77;;;;;;;17.29;45.76;101066.00;4909557;29;20209;-73
2022/05/28 07:48:32;;;;;;;6.33;1.37;;;;;;;17.33;44.82;101064.59;4910925;29;20216;-73
2022/05/28 07:51:00;;;;;;;6.00;1.60;;;;;;;17.23;44.83;101061.34;4910378;29;20217;-72
2022/05/28 07:53:28;;;;;;;8.60;1.63;;;;;;;17.25;45.62;101057.44;4909795;29;20246;-72
2022/05/28 07:55:58;;;;;;;9.47;1.80;;;;;;;17.34;45.23;101058.25;4914384;29;20209;-73
2022/05/28 07:58:26;;;;;;;8.17;1.73;;;;;;;17.37;45.62;101049.84;4912567;29;20220;-73
2022/05/28 08:00:54;;;;;;;8.43;1.30;;;;;;;17.40;44.08;101054.03;4911014;29;20229;-73
2022/05/28 08:03:24;;;;;;;12.83;2.77;;;;;;;17.56;44.13;101054.75;4910901;29;20264;-73
2022/05/28 08:05:56;;;;;;;7.10;1.77;;;;;;;17.67;44.95;101049.00;4911350;29;20272;-73
2022/05/28 08:08:26;;;;;;;7.77;1.70;;;;;;;17.65;44.03;101052.88;4911029;29;20229;-73
2022/05/28 08:10:55;;;;;;;8.40;1.67;;;;;;;17.56;44.24;101053.91;4911572;29;20629;-73
2022/05/28 08:13:25;;;;;;;7.90;1.77;;;;;;;17.47;44.30;101055.81;4911554;29;20242;-73
2022/05/28 08:15:54;;;;;;;6.27;1.40;;;;;;;17.40;44.13;101048.66;4910889;29;20244;-73
2022/05/28 08:18:25;;;;;;;9.67;1.90;;;;;;;17.29;44.29;101056.09;4911401;29;20744;-72
2022/05/28 08:23:48;;;;;;;5.07;1.00;;;;;;;17.25;44.15;101048.56;4902755;29;20292;-73
2022/05/28 08:26:19;;;;;;;8.67;1.20;;;;;;;17.39;44.08;101047.00;4911644;29;20304;-74
2022/05/28 08:28:48;;;;;;;7.77;2.07;;;;;;;17.47;44.10;101044.25;4911559;29;20276;-73
2022/05/28 08:31:16;;;;;;;14.27;1.70;;;;;;;17.44;43.46;101044.59;4909852;29;20522;-73
2022/05/28 08:33:46;;;;;;;7.20;1.50;;;;;;;17.37;42.94;101052.53;4911169;29;20212;-73
2022/05/28 08:36:15;;;;;;;5.70;1.10;;;;;;;17.33;43.22;101053.88;4910751;29;20240;-73
2022/05/28 08:38:44;;;;;;;6.17;1.07;;;;;;;17.37;43.58;101044.47;4911475;29;20662;-73
2022/05/28 08:41:14;;;;;;;7.47;1.60;;;;;;;17.47;43.41;101044.25;4912274;29;20244;-73
2022/05/28 08:43:49;;;;;;;5.53;1.40;;;;;;;17.47;43.36;101050.44;4911132;29;20229;-73
2022/05/28 08:46:18;;;;;;;8.10;1.50;;;;;;;17.44;43.12;101050.78;4907718;29;20308;-73
2022/05/28 08:48:51;;;;;;;7.67;1.47;;;;;;;17.38;43.40;101051.53;4909661;29;20271;-72
2022/05/28 08:51:27;;;;;;;9.93;1.60;;;;;;;17.29;44.06;101048.06;4911065;29;20205;-72
2022/05/28 08:53:59;;;;;;;5.40;1.23;;;;;;;17.27;44.20;101057.28;4916089;29;20218;-72
2022/05/28 08:56:29;;;;;;;5.90;1.20;;;;;;;17.36;44.39;101045.50;4912438;29;20213;-72
2022/05/28 08:59:12;;;;;;;4.90;1.00;;;;;;;17.53;43.98;101049.72;4912299;29;20213;-72
2022/05/28 09:01:44;;;;;;;9.07;1.80;;;;;;;17.57;43.84;101053.72;4914536;29;20213;-72
2022/05/28 09:04:16;;;;;;;7.57;1.70;;;;;;;17.76;43.55;101051.59;4907983;29;20225;-73
2022/05/28 09:06:49;;;;;;;7.20;1.83;;;;;;;17.97;43.21;101043.69;4911555;29;20235;-73
2022/05/28 09:09:17;;;;;;;5.83;1.20;;;;;;;18.19;43.23;101034.75;4904487;29;20244;-73
2022/05/28 09:11:52;;;;;;;3.67;1.30;;;;;;;18.39;42.63;101041.22;4909164;29;20240;-73
2022/05/28 09:14:24;;;;;;;4.97;0.93;;;;;;;18.49;43.46;101034.75;4909999;29;20298;-73
2022/05/28 09:16:54;;;;;;;4.53;1.27;;;;;;;18.62;42.03;101034.97;4911091;29;20228;-73
2022/05/28 09:19:31;;;;;;;5.13;1.30;;;;;;;18.67;41.58;101029.84;4909759;29;20217;-72
2022/05/28 09:22:00;;;;;;;4.67;0.93;;;;;;;18.63;41.67;101025.88;4911632;29;20209;-72
2022/05/28 09:24:33;;;;;;;6.10;1.20;;;;;;;18.53;41.47;101026.13;4910999;29;20229;-73
2022/05/28 09:27:06;;;;;;;5.37;1.50;;;;;;;18.37;41.31;101023.66;4911092;29;20268;-73
2022/05/28 09:29:55;;;;;;;6.90;0.90;;;;;;;18.17;41.84;101020.69;4904762;29;20722;-73
2022/05/28 09:32:33;;;;;;;5.97;1.83;;;;;;;18.02;41.64;101022.53;4893478;29;20225;-73
2022/05/28 09:35:10;;;;;;;6.23;1.10;;;;;;;18.09;41.23;101007.34;4895051;29;20222;-74
2022/05/28 09:37:56;;;;;;;6.03;1.00;;;;;;;18.28;41.11;101009.47;4896740;29;20205;-73
2022/05/28 09:40:31;;;;;;;3.53;0.90;;;;;;;18.56;41.42;101006.16;4895247;29;20201;-72
2022/05/28 09:43:19;;;;;;;2.93;1.07;;;;;;;18.76;39.72;100996.47;4899173;29;20207;-73
2022/05/28 09:46:00;;;;;;;1.97;0.60;;;;;;;18.88;39.50;100989.59;4898233;29;20213;-73
2022/05/28 09:48:29;;;;;;;7.60;1.17;;;;;;;18.77;39.21;100995.47;4895365;29;20351;-73
2022/05/28 09:50:58;;;;;;;5.10;1.10;;;;;;;18.65;39.52;100996.97;4891106;29;20209;-74
2022/05/28 09:56:21;;;;;;;5.33;1.30;;;;;;;18.47;40.25;100991.16;4892018;29;20252;-73
2022/05/28 09:58:49;;;;;;;4.70;1.13;;;;;;;18.48;41.00;100995.47;4895095;29;20209;-72
2022/05/28 10:01:21;;;;;;;10.50;1.30;;;;;;;18.53;40.68;100987.69;4892766;29;20212;-73
2022/05/28 10:06:48;;;;;;;5.33;1.20;;;;;;;18.46;40.48;100992.16;4889700;29;20267;-72
2022/05/28 10:09:18;;;;;;;6.67;1.23;;;;;;;18.38;40.46;100988.53;4891760;29;20251;-73
2022/05/28 10:11:50;;;;;;;5.40;1.23;;;;;;;18.56;41.01;100990.03;4895166;29;20237;-73
2022/05/28 10:14:24;;;;;;;3.00;1.00;;;;;;;18.61;40.23;100979.56;4903894;29;20303;-74
2022/05/28 10:16:56;;;;;;;7.87;1.40;;;;;;;18.71;40.08;100978.25;4895494;29;20866;-73
2022/05/28 10:19:30;;;;;;;5.63;1.17;;;;;;;18.71;39.95;100975.56;4902951;29;20216;-73
2022/05/28 10:22:02;;;;;;;6.47;1.00;;;;;;;18.79;39.61;100971.94;4903382;29;20237;-72
2022/05/28 10:24:41;;;;;;;4.27;1.20;;;;;;;18.96;39.51;100973.38;4902561;29;20975;-73
2022/05/28 10:27:24;;;;;;;4.87;1.07;;;;;;;19.21;39.70;100967.59;4903172;29;20212;-73
2022/05/28 10:29:53;;;;;;;9.10;1.20;;;;;;;19.31;38.89;100955.50;4896376;29;20323;-72
2022/05/28 10:32:30;;;;;;;5.27;1.37;;;;;;;19.63;38.23;100959.53;4895718;29;20580;-73
2022/05/28 10:35:02;;;;;;;5.00;0.90;;;;;;;19.81;38.53;100961.72;4898271;29;20205;-71
2022/05/28 10:37:31;;;;;;;5.23;0.87;;;;;;;20.13;38.19;100954.91;4899216;29;20218;-72
2022/05/28 10:40:09;;;;;;;6.63;1.23;;;;;;;20.25;37.46;100948.75;4899853;29;20220;-73
2022/05/28 10:42:38;;;;;;;4.40;1.10;;;;;;;20.33;37.26;100947.75;4894938;29;20704;-73
2022/05/28 10:45:07;;;;;;;2.17;0.83;;;;;;;20.19;37.55;100951.41;4904741;29;20320;-74
2022/05/28 10:48:03;;;;;;;2.93;0.90;;;;;;;19.90;36.89;100947.94;4894803;29;20210;-73
2022/05/28 10:50:43;;;;;;;4.63;1.00;;;;;;;19.62;37.21;100957.84;4901814;29;20212;-73
2022/05/28 10:53:22;;;;;;;6.03;1.10;;;;;;;19.41;37.29;100949.81;4897667;29;20746;-73
2022/05/28 10:56:14;;;;;;;3.43;1.10;;;;;;;19.18;38.05;100961.59;4896664;29;20252;-73
2022/05/28 10:58:51;;;;;;;3.30;0.83;;;;;;;19.00;38.63;100955.81;4902572;29;20210;-73
2022/05/28 11:01:39;;;;;;;3.17;0.97;;;;;;;19.04;38.58;100943.69;4898530;29;20251;-73
2022/05/28 11:04:24;;;;;;;4.43;1.07;;;;;;;19.14;38.45;100941.50;4900789;29;20574;-74
2022/05/28 11:07:09;;;;;;;3.00;0.83;;;;;;;19.16;37.97;100934.09;4901609;29;20209;-73
2022/05/28 11:09:50;;;;;;;3.73;0.93;;;;;;;19.04;38.17;100924.88;4898984;29;20202;-74
2022/05/28 11:12:40;;;;;;;4.93;0.70;;;;;;;18.97;38.40;100932.03;4895189;29;20292;-74
2022/05/28 11:15:23;;;;;;;4.53;1.10;;;;;;;19.06;38.73;100933.56;4894554;29;20214;-73
2022/05/28 11:18:07;;;;;;;2.17;0.97;;;;;;;19.34;38.46;100927.41;4894895;29;20567;-73
2022/05/28 11:20:45;;;;;;;7.70;1.30;;;;;;;19.59;37.59;100925.97;4902577;29;20205;-73
2022/05/28 11:23:30;;;;;;;5.03;1.10;;;;;;;19.82;37.12;100906.88;4894576;29;20296;-72
2022/05/28 11:26:09;;;;;;;4.70;1.00;;;;;;;20.13;36.84;100909.13;4898137;29;20228;-73
2022/05/28 11:28:54;;;;;;;3.90;1.00;;;;;;;20.31;36.42;100904.03;4901616;29;20339;-73
2022/05/28 11:31:31;;;;;;;6.40;1.20;;;;;;;20.35;35.82;100899.94;4917499;29;20316;-73
2022/05/28 11:34:05;;;;;;;6.10;1.03;;;;;;;20.25;35.30;100904.81;4924893;29;20577;-73
2022/05/28 11:36:38;;;;;;;3.93;0.80;;;;;;;20.18;34.73;100906.66;4920179;29;20211;-72
2022/05/28 11:39:11;;;;;;;4.63;0.83;;;;;;;20.06;34.95;100890.22;4916942;29;20621;-72
2022/05/28 11:41:48;;;;;;;1.43;0.60;;;;;;;19.97;36.00;100886.03;4931927;29;20247;-73
2022/05/28 11:44:22;;;;;;;3.60;0.90;;;;;;;19.85;36.27;100883.09;4929335;29;20287;-73
2022/05/28 11:46:57;;;;;;;9.20;1.07;;;;;;;19.86;36.72;100879.38;4932914;29;20235;-74
2022/05/28 11:52:32;;;;;;;9.57;1.13;;;;;;;19.82;36.48;100883.50;4936596;29;20215;-73
2022/05/28 11:55:06;;;;;;;5.60;1.37;;;;;;;19.79;37.18;100875.81;4940630;29;20539;-73
2022/05/28 11:57:41;;;;;;;5.70;1.10;;;;;;;19.78;37.53;100870.66;4931337;29;20263;-73
2022/05/28 12:00:12;;;;;;;8.43;1.17;;;;;;;19.94;37.17;100869.47;4931942;29;20211;-74